createdAt,value
2022-12-19T00:01:35.558Z,40.80
2022-12-19T00:04:08.166Z,33.30
2022-12-19T00:06:43.447Z,32.87
2022-12-19T00:09:14.276Z,37.80
2022-12-19T00:11:43.194Z,36.30
2022-12-19T00:14:12.861Z,33.47
2022-12-19T00:16:42.148Z,33.70
2022-12-19T00:19:12.044Z,36.73
2022-12-19T00:21:40.792Z,33.17
2022-12-19T00:24:20.723Z,33.57
2022-12-19T00:26:51.835Z,32.83
2022-12-19T00:29:20.868Z,32.63
2022-12-19T00:31:49.488Z,31.53
2022-12-19T00:34:18.753Z,35.27
2022-12-19T00:36:47.134Z,33.73
2022-12-19T00:39:16.382Z,33.90
2022-12-19T00:41:47.917Z,30.80
2022-12-19T00:44:18.590Z,32.13
2022-12-19T00:46:53.027Z,32.27
2022-12-19T00:49:21.759Z,30.20
2022-12-19T00:51:50.905Z,32.27
2022-12-19T00:54:19.526Z,30.80
2022-12-19T00:56:48.380Z,30.60
2022-12-19T00:59:18.926Z,31.07
2022-12-19T01:01:58.312Z,29.07
2022-12-19T01:04:28.893Z,30.57
2022-12-19T01:07:01.735Z,30.63
2022-12-19T01:09:36.356Z,29.13
2022-12-19T01:12:25.142Z,30.43
2022-12-19T01:15:03.948Z,32.17
2022-12-19T01:17:43.815Z,29.90
2022-12-19T01:20:16.506Z,29.73
2022-12-19T01:22:46.687Z,31.03
2022-12-19T01:25:16.406Z,30.30
2022-12-19T01:27:44.869Z,31.23
2022-12-19T01:30:15.690Z,29.80
2022-12-19T01:32:45.312Z,30.17
2022-12-19T01:35:21.735Z,30.07
2022-12-19T01:37:52.392Z,29.97
2022-12-19T01:40:27.847Z,29.57
2022-12-19T01:42:56.780Z,30.20
2022-12-19T01:45:33.940Z,27.87
2022-12-19T01:48:18.384Z,30.57
2022-12-19T01:51:00.844Z,29.87
2022-12-19T01:53:38.585Z,29.33
2022-12-19T01:56:19.703Z,30.63
2022-12-19T01:59:00.615Z,29.70
2022-12-19T02:01:47.690Z,29.90
2022-12-19T02:04:25.280Z,30.03
2022-12-19T02:06:56.918Z,28.80
2022-12-19T02:09:26.529Z,27.73
2022-12-19T02:11:55.336Z,29.03
2022-12-19T02:14:26.037Z,29.40
2022-12-19T02:17:04.107Z,27.80
2022-12-19T02:20:06.907Z,27.77
2022-12-19T02:22:52.740Z,28.97
2022-12-19T02:25:45.855Z,29.33
2022-12-19T02:28:34.143Z,28.23
2022-12-19T02:31:16.612Z,29.77
2022-12-19T02:33:57.355Z,30.53
2022-12-19T02:36:38.160Z,27.97
2022-12-19T02:39:12.966Z,29.67
2022-12-19T02:41:48.987Z,29.47
2022-12-19T02:44:25.762Z,31.73
2022-12-19T02:46:59.237Z,28.33
2022-12-19T02:49:31.293Z,27.67
2022-12-19T02:52:10.354Z,27.87
2022-12-19T02:54:44.883Z,27.63
2022-12-19T02:57:21.289Z,28.07
2022-12-19T03:00:03.170Z,28.20
2022-12-19T03:02:45.400Z,29.13
2022-12-19T03:05:34.149Z,30.83
2022-12-19T03:08:08.297Z,28.47
2022-12-19T03:10:43.931Z,28.03
2022-12-19T03:13:17.944Z,29.87
2022-12-19T03:15:47.312Z,28.40
2022-12-19T03:18:18.788Z,28.50
2022-12-19T03:20:49.600Z,28.57
2022-12-19T03:23:19.300Z,28.53
2022-12-19T03:25:52.049Z,28.80
2022-12-19T03:28:26.343Z,28.43
2022-12-19T03:30:56.746Z,26.73
2022-12-19T03:33:30.629Z,29.27
2022-12-19T03:36:06.163Z,28.27
2022-12-19T03:38:36.719Z,27.03
2022-12-19T03:41:08.273Z,28.67
2022-12-19T03:43:37.637Z,27.33
2022-12-19T03:46:14.383Z,28.30
2022-12-19T03:48:46.138Z,29.13
2022-12-19T03:51:24.887Z,27.00
2022-12-19T03:54:01.810Z,28.17
2022-12-19T03:56:36.808Z,27.87
2022-12-19T03:59:11.326Z,27.97
2022-12-19T04:01:42.147Z,31.20
2022-12-19T04:04:14.119Z,31.27
2022-12-19T04:06:45.989Z,30.90
2022-12-19T04:09:20.690Z,31.00
2022-12-19T04:11:54.722Z,28.17
2022-12-19T04:14:29.760Z,29.10
2022-12-19T04:17:07.378Z,28.70
2022-12-19T04:19:44.233Z,29.03
2022-12-19T04:22:17.640Z,30.23
2022-12-19T04:24:49.824Z,28.20
2022-12-19T04:27:19.923Z,30.83
2022-12-19T04:29:53.501Z,30.17
2022-12-19T04:32:23.120Z,29.07
2022-12-19T04:34:53.308Z,31.83
2022-12-19T04:37:21.817Z,31.70
2022-12-19T04:39:50.927Z,40.17
2022-12-19T04:42:19.953Z,31.87
2022-12-19T04:44:48.876Z,34.87
2022-12-19T04:47:17.681Z,32.17
2022-12-19T04:49:46.085Z,32.90
2022-12-19T04:52:16.785Z,37.07
2022-12-19T04:54:45.217Z,37.20
2022-12-19T04:57:14.153Z,34.27
2022-12-19T04:59:42.894Z,33.20
2022-12-19T05:02:11.447Z,34.63
2022-12-19T05:04:40.965Z,32.20
2022-12-19T05:07:09.673Z,31.00
2022-12-19T05:09:39.947Z,34.80
2022-12-19T05:12:10.753Z,34.53
2022-12-19T05:14:39.159Z,33.53
2022-12-19T05:17:08.248Z,37.20
2022-12-19T05:19:36.914Z,33.60
2022-12-19T05:22:05.334Z,33.87
2022-12-19T05:24:34.801Z,35.13
2022-12-19T05:27:05.232Z,35.43
2022-12-19T05:29:34.925Z,38.03
2022-12-19T05:32:03.358Z,37.23
2022-12-19T05:34:32.743Z,33.80
2022-12-19T05:37:03.079Z,35.23
2022-12-19T05:39:32.455Z,35.20
2022-12-19T05:42:01.392Z,38.17
2022-12-19T05:44:31.163Z,33.27
2022-12-19T05:47:00.391Z,36.07
2022-12-19T05:49:29.286Z,34.33
2022-12-19T05:51:57.639Z,33.27
2022-12-19T05:54:27.975Z,32.77
2022-12-19T05:56:56.425Z,31.23
2022-12-19T05:59:25.480Z,32.40
2022-12-19T06:01:56.008Z,31.83
2022-12-19T06:04:25.029Z,32.57
2022-12-19T06:06:53.880Z,31.03
2022-12-19T06:09:22.436Z,32.50
2022-12-19T06:11:53.152Z,33.03
2022-12-19T06:14:21.687Z,31.60
2022-12-19T06:16:50.123Z,34.67
2022-12-19T06:19:20.444Z,35.10
2022-12-19T06:21:49.669Z,31.87
2022-12-19T06:24:19.079Z,32.50
2022-12-19T06:26:47.525Z,33.50
2022-12-19T06:29:16.576Z,33.93
2022-12-19T06:31:45.801Z,33.33
2022-12-19T06:34:32.861Z,34.40
2022-12-19T06:37:08.110Z,32.83
2022-12-19T06:39:36.980Z,31.93
2022-12-19T06:42:24.354Z,32.90
2022-12-19T06:44:56.014Z,31.23
2022-12-19T06:47:26.142Z,31.10
2022-12-19T06:49:54.741Z,33.77
2022-12-19T06:52:26.221Z,33.93
2022-12-19T06:54:55.269Z,33.07
2022-12-19T06:57:24.171Z,31.20
2022-12-19T06:59:52.837Z,33.90
2022-12-19T07:02:27.342Z,31.30
2022-12-19T07:05:01.655Z,31.97
2022-12-19T07:07:31.771Z,32.93
2022-12-19T07:10:00.873Z,33.87
2022-12-19T07:12:29.340Z,31.13
2022-12-19T07:14:58.179Z,33.10
2022-12-19T07:17:27.557Z,34.23
2022-12-19T07:19:58.698Z,33.67
2022-12-19T07:22:34.583Z,31.67
2022-12-19T07:25:04.598Z,31.33
2022-12-19T07:27:36.172Z,31.50
2022-12-19T07:30:07.864Z,31.50
2022-12-19T07:32:37.450Z,32.17
2022-12-19T07:35:06.847Z,32.07
2022-12-19T07:37:36.644Z,34.70
2022-12-19T07:40:06.522Z,32.70
2022-12-19T07:42:35.215Z,32.30
2022-12-19T07:45:04.305Z,31.50
2022-12-19T07:47:32.804Z,32.67
2022-12-19T07:50:01.965Z,36.13
2022-12-19T07:52:30.845Z,34.60
2022-12-19T07:55:00.668Z,32.03
2022-12-19T07:57:29.165Z,31.77
2022-12-19T07:59:58.038Z,33.37
2022-12-19T08:02:27.845Z,32.93
2022-12-19T08:04:56.412Z,30.70
2022-12-19T08:07:25.343Z,32.60
2022-12-19T08:09:54.184Z,32.07
2022-12-19T08:12:24.275Z,29.80
2022-12-19T08:14:57.100Z,30.67
2022-12-19T08:17:26.680Z,28.97
2022-12-19T08:19:55.137Z,33.13
2022-12-19T08:22:24.855Z,29.77
2022-12-19T08:24:53.832Z,30.60
2022-12-19T08:27:22.269Z,29.67
2022-12-19T08:29:53.405Z,30.83
2022-12-19T08:32:22.310Z,30.47
2022-12-19T08:34:51.663Z,30.53
2022-12-19T08:37:20.979Z,29.60
2022-12-19T08:39:49.402Z,32.13
2022-12-19T08:42:18.734Z,30.60
2022-12-19T08:44:47.238Z,30.03
2022-12-19T08:47:17.636Z,30.10
2022-12-19T08:49:46.998Z,30.93
2022-12-19T08:52:15.427Z,30.27
2022-12-19T08:54:45.804Z,29.90
2022-12-19T08:57:14.266Z,29.37
2022-12-19T08:59:42.949Z,30.23
2022-12-19T09:02:12.424Z,30.07
2022-12-19T09:06:00.737Z,28.90
2022-12-19T09:07:32.271Z,29.57
2022-12-19T09:10:08.867Z,31.27
2022-12-19T09:12:37.933Z,30.00
2022-12-19T09:15:07.181Z,30.20
2022-12-19T09:17:36.646Z,32.10
2022-12-19T09:20:08.157Z,32.27
2022-12-19T09:22:36.664Z,29.90
2022-12-19T09:25:06.271Z,31.90
2022-12-19T09:28:09.339Z,30.87
2022-12-19T09:30:25.269Z,31.93
2022-12-19T09:32:54.053Z,29.93
2022-12-19T09:35:29.909Z,31.53
2022-12-19T09:38:00.495Z,31.63
2022-12-19T09:40:36.677Z,31.90
2022-12-19T09:43:09.856Z,30.77
2022-12-19T09:45:50.713Z,33.23
2022-12-19T09:48:24.542Z,31.57
2022-12-19T09:51:07.951Z,32.57
2022-12-19T09:53:53.817Z,29.90
2022-12-19T09:56:27.560Z,30.67
2022-12-19T09:59:02.081Z,30.87
2022-12-19T10:01:36.831Z,30.57
2022-12-19T10:04:12.107Z,30.50
2022-12-19T10:07:22.226Z,30.20
2022-12-19T10:11:26.463Z,29.70
2022-12-19T10:12:52.362Z,29.03
2022-12-19T10:15:30.403Z,30.53
2022-12-19T10:18:15.953Z,30.63
2022-12-19T10:20:51.641Z,32.20
2022-12-19T10:23:46.847Z,30.10
2022-12-19T10:26:20.591Z,29.50
2022-12-19T10:29:13.577Z,32.43
2022-12-19T10:31:53.697Z,30.80
2022-12-19T10:34:25.102Z,30.83
2022-12-19T10:37:24.501Z,30.93
2022-12-19T10:40:27.550Z,31.43
2022-12-19T10:43:11.000Z,27.27
2022-12-19T10:45:47.062Z,30.97
2022-12-19T10:48:18.693Z,30.53
2022-12-19T10:50:50.465Z,31.20
2022-12-19T10:53:28.118Z,28.77
2022-12-19T10:56:02.641Z,29.70
2022-12-19T10:58:34.927Z,32.30
2022-12-19T11:01:07.547Z,30.70
2022-12-19T11:03:36.850Z,29.43
2022-12-19T11:06:07.777Z,30.83
2022-12-19T11:08:37.474Z,29.13
2022-12-19T11:14:50.076Z,29.20
2022-12-19T11:19:06.831Z,28.53
2022-12-19T11:23:42.513Z,27.97
2022-12-19T11:29:30.141Z,29.07
2022-12-19T11:29:31.325Z,29.10
2022-12-19T11:30:26.151Z,27.57
2022-12-19T11:30:47.446Z,29.10
2022-12-19T11:32:40.542Z,28.80
2022-12-19T11:34:51.452Z,31.13
2022-12-19T11:37:23.225Z,27.23
2022-12-19T11:39:59.226Z,27.67
2022-12-19T11:42:33.763Z,26.60
2022-12-19T11:45:13.089Z,28.73
2022-12-19T11:47:46.791Z,27.37
2022-12-19T11:50:19.835Z,27.67
2022-12-19T11:53:09.405Z,26.77
2022-12-19T11:55:46.965Z,25.77
2022-12-19T11:58:16.225Z,27.83
2022-12-19T12:01:03.109Z,26.70
2022-12-19T12:03:54.734Z,27.07
2022-12-19T12:06:35.045Z,26.47
2022-12-19T12:12:06.179Z,27.13
2022-12-19T12:20:31.262Z,26.50
2022-12-19T12:28:01.732Z,28.13
2022-12-19T12:31:04.529Z,27.43
2022-12-19T12:31:28.474Z,27.30
2022-12-19T12:31:49.683Z,27.37
2022-12-19T12:31:52.578Z,25.60
2022-12-19T12:31:57.409Z,28.13
2022-12-19T12:35:32.947Z,27.27
2022-12-19T12:37:51.458Z,28.30
2022-12-19T12:39:25.363Z,27.70
2022-12-19T12:42:09.498Z,27.50
2022-12-19T12:44:45.194Z,29.23
2022-12-19T12:47:20.446Z,28.57
2022-12-19T12:49:53.773Z,27.93
2022-12-19T12:52:30.941Z,28.80
2022-12-19T12:54:59.958Z,28.43
2022-12-19T12:57:36.921Z,28.27
2022-12-19T13:00:17.896Z,27.67
2022-12-19T13:02:51.458Z,28.07
2022-12-19T13:05:31.147Z,28.53
2022-12-19T13:08:01.031Z,29.73
2022-12-19T13:10:32.348Z,29.07
2022-12-19T13:13:03.206Z,29.90
2022-12-19T13:15:49.681Z,27.83
2022-12-19T13:18:37.788Z,28.73
2022-12-19T13:21:10.894Z,26.97
2022-12-19T13:23:49.374Z,28.07
2022-12-19T13:26:23.903Z,28.23
2022-12-19T13:28:52.901Z,28.37
2022-12-19T13:31:23.601Z,27.53
2022-12-19T13:34:19.330Z,28.40
2022-12-19T13:39:50.241Z,27.17
2022-12-19T13:40:10.955Z,26.53
2022-12-19T13:43:11.455Z,27.93
2022-12-19T13:45:42.621Z,27.27
2022-12-19T13:48:17.799Z,26.33
2022-12-19T13:50:49.468Z,28.80
2022-12-19T13:53:19.746Z,27.53
2022-12-19T13:55:50.169Z,27.93
2022-12-19T13:58:28.848Z,28.73
2022-12-19T14:01:02.409Z,26.40
2022-12-19T14:03:37.235Z,26.37
2022-12-19T14:06:16.348Z,27.67
2022-12-19T14:09:41.572Z,27.10
2022-12-19T14:12:17.234Z,26.60
2022-12-19T14:14:49.060Z,26.53
2022-12-19T14:17:38.057Z,27.87
2022-12-19T14:22:06.789Z,27.60
2022-12-19T14:23:08.086Z,29.13
2022-12-19T14:28:21.795Z,27.83
2022-12-19T14:28:38.213Z,30.57
2022-12-19T14:31:12.508Z,30.37
2022-12-19T14:34:04.743Z,30.73
2022-12-19T14:36:36.019Z,29.83
2022-12-19T14:39:22.891Z,29.23
2022-12-19T14:42:18.946Z,29.23
2022-12-19T14:54:01.973Z,33.30
2022-12-19T14:54:07.888Z,26.47
2022-12-19T14:54:16.485Z,30.97
2022-12-19T14:54:55.168Z,39.83
2022-12-19T14:59:05.276Z,28.80
2022-12-19T15:01:36.751Z,27.87
2022-12-19T15:04:51.448Z,31.03
2022-12-19T15:07:08.177Z,28.27
2022-12-19T15:11:04.632Z,30.63
2022-12-19T15:14:52.914Z,28.83
2022-12-19T15:16:00.522Z,28.40
2022-12-19T15:18:40.986Z,29.97
2022-12-19T15:21:12.553Z,28.23
2022-12-19T15:23:42.271Z,27.97
2022-12-19T15:26:15.131Z,30.47
2022-12-19T15:28:47.836Z,28.27
2022-12-19T15:31:29.711Z,32.83
2022-12-19T15:34:34.268Z,30.83
2022-12-19T15:36:48.699Z,29.17
2022-12-19T15:39:17.793Z,27.77
2022-12-19T15:41:48.500Z,28.20
2022-12-19T15:44:20.072Z,27.77
2022-12-19T15:46:49.863Z,28.87
2022-12-19T15:49:22.072Z,29.33
2022-12-19T15:51:51.580Z,29.27
2022-12-19T15:57:20.936Z,28.70
2022-12-19T15:59:49.630Z,27.40
2022-12-19T16:02:21.725Z,26.90
2022-12-19T16:04:58.325Z,27.07
2022-12-19T16:07:30.799Z,26.10
2022-12-19T16:09:59.764Z,27.13
2022-12-19T16:12:33.954Z,27.00
2022-12-19T16:15:04.860Z,27.17
2022-12-19T16:17:34.278Z,27.50
2022-12-19T16:20:05.475Z,27.20
2022-12-19T16:22:34.344Z,28.00
2022-12-19T16:25:03.773Z,27.63
2022-12-19T16:27:32.788Z,29.60
2022-12-19T16:30:18.805Z,28.73
2022-12-19T16:32:48.135Z,28.03
2022-12-19T16:35:40.268Z,29.90
2022-12-19T16:38:10.040Z,28.70
2022-12-19T16:40:39.196Z,29.97
2022-12-19T16:43:15.423Z,28.57
2022-12-19T16:45:45.436Z,28.23
2022-12-19T16:48:22.580Z,29.73
2022-12-19T16:50:52.492Z,31.17
2022-12-19T16:53:21.887Z,31.97
2022-12-19T16:55:51.449Z,35.03
2022-12-19T16:58:22.501Z,34.87
2022-12-19T17:00:53.628Z,34.73
2022-12-19T17:03:30.239Z,32.70
2022-12-19T17:06:00.111Z,34.63
2022-12-19T17:08:29.203Z,34.97
2022-12-19T17:10:57.800Z,34.77
2022-12-19T17:13:26.716Z,42.67
2022-12-19T17:15:57.359Z,40.43
2022-12-19T17:18:30.318Z,43.80
2022-12-19T17:21:01.667Z,39.57
2022-12-19T17:23:32.476Z,40.50
2022-12-19T17:26:02.214Z,33.20
2022-12-19T17:28:30.927Z,32.83
2022-12-19T17:31:04.254Z,32.07
2022-12-19T17:33:35.597Z,33.97
2022-12-19T17:36:07.752Z,31.93
2022-12-19T17:38:36.487Z,30.63
2022-12-19T17:41:05.340Z,29.43
2022-12-19T17:43:34.261Z,30.40
2022-12-19T17:46:03.520Z,29.50
2022-12-19T17:48:33.773Z,30.10
2022-12-19T17:51:02.856Z,29.13
2022-12-19T17:53:33.248Z,28.47
2022-12-19T17:56:02.142Z,29.50
2022-12-19T17:58:30.828Z,28.90
2022-12-19T18:01:01.343Z,29.43
2022-12-19T18:03:29.958Z,29.83
2022-12-19T18:05:59.497Z,31.63
2022-12-19T18:08:31.742Z,30.23
2022-12-19T18:11:03.062Z,29.73
2022-12-19T18:13:33.005Z,30.93
2022-12-19T18:16:03.223Z,30.77
2022-12-19T18:18:36.168Z,31.43
2022-12-19T18:21:06.400Z,31.80
2022-12-19T18:23:35.358Z,30.73
2022-12-19T18:26:05.207Z,31.87
2022-12-19T18:28:34.122Z,31.73
2022-12-19T18:31:04.915Z,33.20
2022-12-19T18:33:38.949Z,33.67
2022-12-19T18:36:08.893Z,33.73
2022-12-19T18:38:37.389Z,36.67
2022-12-19T18:41:10.849Z,34.47
2022-12-19T18:43:40.484Z,37.67
2022-12-19T18:46:14.266Z,35.23
2022-12-19T18:48:44.354Z,34.77
2022-12-19T18:51:16.946Z,32.97
2022-12-19T18:53:47.695Z,32.33
2022-12-19T18:56:19.381Z,31.83
2022-12-19T18:58:48.482Z,32.57
2022-12-19T19:01:20.476Z,31.63
2022-12-19T19:03:54.284Z,32.67
2022-12-19T19:06:25.839Z,32.37
2022-12-19T19:08:56.865Z,34.77
2022-12-19T19:11:53.848Z,33.97
2022-12-19T19:14:22.366Z,34.13
2022-12-19T19:16:52.331Z,33.23
2022-12-19T19:19:21.271Z,33.17
2022-12-19T19:21:50.138Z,30.07
2022-12-19T19:24:21.768Z,31.43
2022-12-19T19:26:50.671Z,28.70
2022-12-19T19:29:20.534Z,30.03
2022-12-19T19:31:51.551Z,28.10
2022-12-19T19:34:24.403Z,28.03
2022-12-19T19:36:56.354Z,30.93
2022-12-19T19:39:25.344Z,30.60
2022-12-19T19:41:53.810Z,29.50
2022-12-19T19:44:23.869Z,30.70
2022-12-19T19:46:52.381Z,29.00
2022-12-19T19:49:21.959Z,30.20
2022-12-19T19:51:50.405Z,31.33
2022-12-19T19:54:19.761Z,32.63
2022-12-19T19:56:48.892Z,34.00
2022-12-19T19:59:17.404Z,34.00
2022-12-19T20:01:47.368Z,34.43
2022-12-19T20:04:16.283Z,32.37
2022-12-19T20:06:44.760Z,32.90
2022-12-19T20:09:13.196Z,32.27
2022-12-19T20:11:41.616Z,29.43
2022-12-19T20:14:10.692Z,32.30
2022-12-19T20:16:39.148Z,29.27
2022-12-19T20:19:09.374Z,30.47
2022-12-19T20:21:37.852Z,28.50
2022-12-19T20:24:07.547Z,30.03
2022-12-19T20:26:36.223Z,29.70
2022-12-19T20:29:07.064Z,26.80
2022-12-19T20:31:35.619Z,29.70
2022-12-19T20:34:04.740Z,28.10
2022-12-19T20:36:34.835Z,30.60
2022-12-19T20:39:03.472Z,29.70
2022-12-19T20:41:32.232Z,28.33
2022-12-19T20:44:01.155Z,27.70
2022-12-19T20:46:29.662Z,28.07
2022-12-19T20:48:59.172Z,28.40
2022-12-19T20:51:27.591Z,28.00
2022-12-19T20:53:58.378Z,27.23
2022-12-19T20:56:28.495Z,28.27
2022-12-19T20:58:57.586Z,27.30
2022-12-19T21:01:26.496Z,26.97
2022-12-19T21:03:55.261Z,30.30
2022-12-19T21:06:26.966Z,31.07
2022-12-19T21:08:58.183Z,31.83
2022-12-19T21:11:27.203Z,30.80
2022-12-19T21:13:56.109Z,29.50
2022-12-19T21:16:24.972Z,28.63
2022-12-19T21:18:53.957Z,27.90
2022-12-19T21:21:24.674Z,32.97
2022-12-19T21:23:55.642Z,30.80
2022-12-19T21:26:26.888Z,32.63
2022-12-19T21:28:58.216Z,31.87
2022-12-19T21:31:28.678Z,32.40
2022-12-19T21:33:59.764Z,29.63
2022-12-19T21:36:29.174Z,30.93
2022-12-19T21:39:00.288Z,29.10
2022-12-19T21:41:30.855Z,27.63
2022-12-19T21:44:00.692Z,28.77
2022-12-19T21:46:32.965Z,30.77
2022-12-19T21:49:03.342Z,32.07
2022-12-19T21:51:33.162Z,33.27
2022-12-19T21:54:03.855Z,34.80
2022-12-19T21:56:35.315Z,32.97
2022-12-19T21:59:05.671Z,30.87
2022-12-19T22:01:35.146Z,29.77
2022-12-19T22:04:06.397Z,30.07
2022-12-19T22:06:37.149Z,31.07
2022-12-19T22:09:08.355Z,30.40
2022-12-19T22:11:38.687Z,31.57
2022-12-19T22:14:07.828Z,35.40
2022-12-19T22:16:37.000Z,40.83
2022-12-19T22:19:07.395Z,31.07
2022-12-19T22:21:36.177Z,33.07
2022-12-19T22:24:05.005Z,32.53
2022-12-19T22:26:35.993Z,34.07
2022-12-19T22:29:08.489Z,31.73
2022-12-19T22:31:38.870Z,31.47
2022-12-19T22:34:10.327Z,31.90
2022-12-19T22:36:40.876Z,31.47
2022-12-19T22:39:10.993Z,31.10
2022-12-19T22:41:41.449Z,30.43
2022-12-19T22:44:16.786Z,28.80
2022-12-19T22:46:45.797Z,30.47
2022-12-19T22:49:14.870Z,31.17
2022-12-19T22:51:43.351Z,29.60
2022-12-19T22:54:12.786Z,30.67
2022-12-19T22:56:42.292Z,32.77
2022-12-19T22:59:13.747Z,32.17
2022-12-19T23:01:44.224Z,39.30
2022-12-19T23:04:15.967Z,31.73
2022-12-19T23:06:45.230Z,31.53
2022-12-19T23:09:16.575Z,30.57
2022-12-19T23:11:47.052Z,30.37
2022-12-19T23:14:19.115Z,32.20
2022-12-19T23:16:48.434Z,31.43
2022-12-19T23:19:17.391Z,31.07
2022-12-19T23:21:46.903Z,28.60
2022-12-19T23:24:16.444Z,32.37
2022-12-19T23:26:45.574Z,30.30
2022-12-19T23:29:15.797Z,30.07
2022-12-19T23:31:47.610Z,29.33
2022-12-19T23:34:16.874Z,30.07
2022-12-19T23:37:10.083Z,38.43
2022-12-19T23:39:35.095Z,33.20
2022-12-19T23:42:03.788Z,31.77
2022-12-19T23:44:32.423Z,30.50
2022-12-19T23:47:04.151Z,34.93
2022-12-19T23:49:33.991Z,33.27
2022-12-19T23:52:03.715Z,30.60
2022-12-19T23:54:32.588Z,47.17
2022-12-19T23:57:01.506Z,42.40
2022-12-19T23:59:30.271Z,37.67
